Terminal Aerodrome Forecast
Issued by NWS

Home | Current Version | Previous Version | Text Only | Print | Product List | Glossary On
Versions: 1 2 3 4 5 6 7 8 9 10 11 12 13 14 15 16 17 18 19 20
000
FTUS44 KLZK 191700
TAFPBF
TAF
KPBF 191737Z 1918/2018 08005KT P6SM SCT015
     FM191900 08007KT P6SM BKN050
     FM200000 07003KT P6SM SCT250
     FM200900 10002KT 5SM BR FEW005 SCT250
      TEMPO 2009/2012 2SM BR BKN005
     FM201400 14005KT P6SM BKN015
     FM201600 16007KT P6SM SCT035=

USA.gov is the U.S. government's official web portal to all federal, state and local government web resources and services.